FZRN weather

Nyunzu Airport
Nyunzu, Katanga Province, Congo (Kinshasa)

Public forecast

Using degrees Celsius for public forecast. Weather courtesy of forecast.io.

Closest aviation weather report (METAR) to Nyunzu Airport

Report is more than 2 hours old.

Closest report is Kigoma Airport, 118.0 nm (218.5 km) ENE. Retrieved 2020/07/10 10:00 UTC (3 hours ago):

HTKA 101000Z 29011KT 9999 BKN023 FEW024CB 27/17 Q1016 NOSIG

Closest aviation forecast (TAF) to Nyunzu Airport

Forecast is more than 12 hours old.

Closest forecast is Kigoma Airport, 118.0 nm (218.5 km) ENE. Retrieved 2020/07/06 12:24 UTC (4 days ago):

TAF HTKA 061100Z 0612/0712 00000KT FEW020 SCT090 BECMG 0612/0615 21010KT